Time;durP1;ratioP1;P1;durP2;ratioP2;P2;SDS_P1;SDS_P2;PMS_P1;PMS_P2;Temp;Humidity;BMP_temperature;BMP_pressure;BME280_temperature;BME280_humidity;BME280_pressure;Samples;Min_cycle;Max_cycle;Signal;HPM_P1;HPM_P2
2022/04/25 00:01:10;;;;;;;;;;;10.90;99.90;;;;;;5130378;27;19928;-74
2022/04/25 00:03:37;;;;;;;;;;;10.90;99.90;;;;;;5130272;27;19924;-74
2022/04/25 00:06:06;;;;;;;;;;;10.90;99.90;;;;;;5130530;27;20419;-74
2022/04/25 00:08:32;;;;;;;;;;;10.90;99.90;;;;;;5130271;28;19980;-74
2022/04/25 00:10:59;;;;;;;;;;;10.80;99.90;;;;;;5130347;27;19940;-73
2022/04/25 00:13:26;;;;;;;;;;;10.80;99.90;;;;;;5130201;27;19930;-74
2022/04/25 00:15:54;;;;;;;;;;;10.70;99.90;;;;;;5130475;27;19923;-74
2022/04/25 00:18:21;;;;;;;;;;;10.60;99.90;;;;;;5130320;28;20435;-74
2022/04/25 00:20:48;;;;;;;;;;;10.40;99.90;;;;;;5132223;27;19930;-74
2022/04/25 00:23:16;;;;;;;;;;;10.30;99.90;;;;;;5134147;27;19927;-73
2022/04/25 00:25:43;;;;;;;;;;;10.20;99.90;;;;;;5134510;27;19924;-74
2022/04/25 00:28:10;;;;;;;;;;;10.10;99.90;;;;;;5134059;27;19930;-74
2022/04/25 00:30:37;;;;;;;;;;;10.00;99.90;;;;;;5133981;27;19927;-74
2022/04/25 00:33:04;;;;;;;;;;;9.90;99.90;;;;;;5134049;27;19923;-73
2022/04/25 00:35:31;;;;;;;;;;;9.80;99.90;;;;;;5133376;27;19927;-73
2022/04/25 00:37:58;;;;;;;;;;;9.80;99.90;;;;;;5134202;27;19931;-74
2022/04/25 00:40:26;;;;;;;;;;;9.90;99.90;;;;;;5130424;27;19992;-74
2022/04/25 00:42:53;;;;;;;;;;;9.90;99.90;;;;;;5124150;27;20445;-74
2022/04/25 00:45:20;;;;;;;;;;;9.90;99.90;;;;;;5133153;27;19924;-74
2022/04/25 00:47:47;;;;;;;;;;;9.90;99.90;;;;;;5133358;27;19927;-74
2022/04/25 00:50:15;;;;;;;;;;;9.90;99.90;;;;;;5133482;27;19927;-74
2022/04/25 00:52:42;;;;;;;;;;;9.80;99.90;;;;;;5133499;27;20021;-74
2022/04/25 00:55:10;;;;;;;;;;;9.80;99.90;;;;;;5133374;27;19931;-74
2022/04/25 00:57:38;;;;;;;;;;;9.80;99.90;;;;;;5133627;27;20398;-74
2022/04/25 01:00:06;;;;;;;;;;;9.80;99.90;;;;;;5133420;27;19923;-74
2022/04/25 01:02:33;;;;;;;;;;;9.80;99.90;;;;;;5133233;27;20306;-74
2022/04/25 01:05:00;;;;;;;;;;;9.70;99.90;;;;;;5133429;27;19924;-74
2022/04/25 01:07:27;;;;;;;;;;;9.70;99.90;;;;;;5133560;27;20290;-74
2022/04/25 01:09:55;;;;;;;;;;;9.70;99.90;;;;;;5133378;27;19927;-73
2022/04/25 01:12:22;;;;;;;;;;;9.60;99.90;;;;;;5133400;27;19923;-74
2022/04/25 01:14:57;;;;;;;;;;;9.60;99.90;;;;;;5132940;27;19972;-73
2022/04/25 01:17:24;;;;;;;;;;;9.50;99.90;;;;;;5133478;27;19946;-72
2022/04/25 01:19:51;;;;;;;;;;;9.50;99.90;;;;;;5133020;27;19927;-74
2022/04/25 01:22:20;;;;;;;;;;;9.50;99.90;;;;;;5132996;27;20374;-74
2022/04/25 01:27:35;;;;;;;;;;;9.30;99.90;;;;;;5133068;27;20374;-73
2022/04/25 01:30:03;;;;;;;;;;;9.30;99.90;;;;;;5132933;27;19931;-74
2022/04/25 01:32:30;;;;;;;;;;;9.20;99.90;;;;;;5132182;27;19949;-74
2022/04/25 01:34:57;;;;;;;;;;;9.20;99.90;;;;;;5132457;27;19924;-73
2022/04/25 01:37:24;;;;;;;;;;;9.20;99.90;;;;;;5132050;27;19930;-73
2022/04/25 01:39:53;;;;;;;;;;;9.20;99.90;;;;;;5117736;27;19932;-74
2022/04/25 01:42:20;;;;;;;;;;;9.20;99.90;;;;;;5117118;27;19973;-74
2022/04/25 01:44:47;;;;;;;;;;;9.10;99.90;;;;;;5111629;28;19967;-74
2022/04/25 01:47:14;;;;;;;;;;;9.10;99.90;;;;;;5111938;28;19948;-74
2022/04/25 01:49:41;;;;;;;;;;;9.10;99.90;;;;;;5111238;28;19927;-74
2022/04/25 01:52:12;;;;;;;;;;;9.00;99.90;;;;;;5112270;28;19932;-74
2022/04/25 01:54:39;;;;;;;;;;;8.90;99.90;;;;;;5111874;28;19924;-74
2022/04/25 01:57:07;;;;;;;;;;;8.90;99.90;;;;;;5112082;28;20406;-73
2022/04/25 01:59:34;;;;;;;;;;;9.00;99.90;;;;;;5111702;28;20395;-74
2022/04/25 02:02:01;;;;;;;;;;;9.10;99.90;;;;;;5111738;28;19987;-74
2022/04/25 02:04:29;;;;;;;;;;;9.10;99.90;;;;;;5111301;28;20318;-74
2022/04/25 02:06:56;;;;;;;;;;;9.20;99.90;;;;;;5112048;28;19931;-74
2022/04/25 02:09:23;;;;;;;;;;;9.20;99.90;;;;;;5111606;28;19924;-75
2022/04/25 02:11:50;;;;;;;;;;;9.20;99.90;;;;;;5111694;28;19923;-74
2022/04/25 02:14:18;;;;;;;;;;;9.20;99.90;;;;;;5111639;27;19924;-74
2022/04/25 02:16:46;;;;;;;;;;;9.10;99.90;;;;;;5111355;28;19973;-74
2022/04/25 02:19:13;;;;;;;;;;;9.10;99.90;;;;;;5111216;28;19928;-74
2022/04/25 02:21:40;;;;;;;;;;;9.00;99.90;;;;;;5111778;28;19946;-74
2022/04/25 02:24:07;;;;;;;;;;;9.00;99.90;;;;;;5111111;28;19924;-75
2022/04/25 02:26:33;;;;;;;;;;;9.00;99.90;;;;;;5111532;28;19938;-75
2022/04/25 02:29:00;;;;;;;;;;;9.00;99.90;;;;;;5111288;28;19927;-74
2022/04/25 02:31:28;;;;;;;;;;;9.00;99.90;;;;;;5111090;28;19923;-74
2022/04/25 02:33:55;;;;;;;;;;;9.00;99.90;;;;;;5110888;28;19927;-75
2022/04/25 02:36:23;;;;;;;;;;;9.00;99.90;;;;;;5111430;28;19984;-74
2022/04/25 02:38:50;;;;;;;;;;;9.10;99.90;;;;;;5110733;28;20391;-73
2022/04/25 02:41:17;;;;;;;;;;;9.00;99.90;;;;;;5110448;28;20415;-73
2022/04/25 02:43:45;;;;;;;;;;;9.00;99.90;;;;;;5110103;28;19927;-74
2022/04/25 02:46:13;;;;;;;;;;;9.00;99.90;;;;;;5110840;28;19927;-74
2022/04/25 02:48:42;;;;;;;;;;;9.00;99.90;;;;;;5111262;28;19976;-75
2022/04/25 02:51:09;;;;;;;;;;;9.00;99.90;;;;;;5111027;28;20337;-71
2022/04/25 02:53:36;;;;;;;;;;;8.90;99.90;;;;;;5110688;28;19923;-73
2022/04/25 02:56:03;;;;;;;;;;;8.90;99.90;;;;;;5110962;28;19927;-73
2022/04/25 02:58:31;;;;;;;;;;;8.90;99.90;;;;;;5110790;28;19924;-73
2022/04/25 03:00:58;;;;;;;;;;;8.90;99.90;;;;;;5110701;28;19928;-72
2022/04/25 03:03:25;;;;;;;;;;;8.90;99.90;;;;;;5110628;28;20352;-73
2022/04/25 03:05:54;;;;;;;;;;;8.90;99.90;;;;;;5110746;28;19923;-72
2022/04/25 03:08:21;;;;;;;;;;;8.90;99.90;;;;;;5110667;28;19928;-73
2022/04/25 03:10:49;;;;;;;;;;;8.80;99.90;;;;;;5110474;28;19924;-72
2022/04/25 03:13:17;;;;;;;;;;;8.80;99.90;;;;;;5110603;28;19985;-73
2022/04/25 03:15:44;;;;;;;;;;;8.80;99.90;;;;;;5110140;28;19985;-73
2022/04/25 03:18:12;;;;;;;;;;;8.80;99.90;;;;;;5110442;28;20022;-73
2022/04/25 03:20:39;;;;;;;;;;;8.90;99.90;;;;;;5110316;28;20435;-72
2022/04/25 03:23:08;;;;;;;;;;;8.90;99.90;;;;;;5109912;28;19924;-73
2022/04/25 03:25:36;;;;;;;;;;;8.90;99.90;;;;;;5109569;28;19930;-72
2022/04/25 03:28:03;;;;;;;;;;;8.90;99.90;;;;;;5109917;28;19931;-73
2022/04/25 03:30:30;;;;;;;;;;;8.90;99.90;;;;;;5109938;28;19963;-73
2022/04/25 03:32:58;;;;;;;;;;;9.00;99.90;;;;;;5110014;28;19977;-73
2022/04/25 03:35:25;;;;;;;;;;;9.00;99.90;;;;;;5110277;28;19931;-71
2022/04/25 03:37:52;;;;;;;;;;;9.00;99.90;;;;;;5110319;28;19924;-74
2022/04/25 03:40:21;;;;;;;;;;;9.00;99.90;;;;;;5109841;28;20390;-74
2022/04/25 03:42:48;;;;;;;;;;;9.00;99.90;;;;;;5110400;28;20023;-73
2022/04/25 03:45:16;;;;;;;;;;;9.00;99.90;;;;;;5110016;28;19928;-74
2022/04/25 03:47:43;;;;;;;;;;;9.00;99.90;;;;;;5110217;28;19939;-74
2022/04/25 03:50:10;;;;;;;;;;;9.00;99.90;;;;;;5110105;28;19963;-74
2022/04/25 03:52:37;;;;;;;;;;;8.90;99.90;;;;;;5110427;28;19924;-74
2022/04/25 03:57:51;;;;;;;;;;;8.90;99.90;;;;;;5114717;28;20022;-74
2022/04/25 04:00:18;;;;;;;;;;;8.80;99.90;;;;;;5114278;28;19924;-73
2022/04/25 04:02:45;;;;;;;;;;;8.80;99.90;;;;;;5114589;28;19924;-73
2022/04/25 04:05:12;;;;;;;;;;;8.70;99.90;;;;;;5114205;28;19931;-74
2022/04/25 04:07:39;;;;;;;;;;;8.70;99.90;;;;;;5114422;28;19924;-74
2022/04/25 04:10:06;;;;;;;;;;;8.70;99.90;;;;;;5114407;28;19927;-74
2022/04/25 04:12:34;;;;;;;;;;;8.70;99.90;;;;;;5114187;28;19937;-73
2022/04/25 04:15:03;;;;;;;;;;;8.60;99.90;;;;;;5114296;28;19930;-73
2022/04/25 04:17:30;;;;;;;;;;;8.70;99.90;;;;;;5113956;28;19923;-74
2022/04/25 04:19:57;;;;;;;;;;;8.70;99.90;;;;;;5113876;28;19935;-72
2022/04/25 04:22:25;;;;;;;;;;;8.70;99.90;;;;;;5114082;28;19985;-73
2022/04/25 04:24:52;;;;;;;;;;;8.70;99.90;;;;;;5115522;28;20364;-74
2022/04/25 04:27:19;;;;;;;;;;;8.60;99.90;;;;;;5113955;28;19924;-74
2022/04/25 04:29:46;;;;;;;;;;;8.60;99.90;;;;;;5113535;28;19924;-74
2022/04/25 04:32:15;;;;;;;;;;;8.50;99.90;;;;;;5113691;28;19983;-74
2022/04/25 04:34:41;;;;;;;;;;;8.50;99.90;;;;;;5113370;28;19924;-73
2022/04/25 04:37:08;;;;;;;;;;;8.50;99.90;;;;;;5113573;28;19931;-73
2022/04/25 04:39:35;;;;;;;;;;;8.40;99.90;;;;;;5113492;28;19963;-74
2022/04/25 04:42:02;;;;;;;;;;;8.30;99.90;;;;;;5113740;28;19924;-73
2022/04/25 04:44:29;;;;;;;;;;;8.30;99.90;;;;;;5113191;28;19924;-73
2022/04/25 04:46:55;;;;;;;;;;;8.20;99.90;;;;;;5113319;28;19984;-74
2022/04/25 04:49:23;;;;;;;;;;;8.20;99.90;;;;;;5113195;28;19924;-74
2022/04/25 04:51:50;;;;;;;;;;;8.10;99.90;;;;;;5113634;28;19924;-74
2022/04/25 04:54:17;;;;;;;;;;;8.10;99.90;;;;;;5113043;28;19931;-74
2022/04/25 04:56:45;;;;;;;;;;;8.10;99.90;;;;;;5113321;28;19928;-74
2022/04/25 04:59:11;;;;;;;;;;;8.10;99.90;;;;;;5113329;28;19924;-74
2022/04/25 05:01:38;;;;;;;;;;;8.00;99.90;;;;;;5109351;28;19931;-74
2022/04/25 05:04:08;;;;;;;;;;;8.00;99.90;;;;;;5108270;28;19962;-74
2022/04/25 05:06:37;;;;;;;;;;;8.00;99.90;;;;;;5112760;28;19932;-75
2022/04/25 05:09:04;;;;;;;;;;;8.00;99.90;;;;;;5112521;28;20402;-74
2022/04/25 05:11:31;;;;;;;;;;;8.00;99.90;;;;;;5102390;28;19924;-74
2022/04/25 05:14:04;;;;;;;;;;;8.10;99.90;;;;;;5092120;28;19931;-75
2022/04/25 05:16:31;;;;;;;;;;;8.10;99.90;;;;;;5092474;28;19930;-74
2022/04/25 05:18:58;;;;;;;;;;;8.10;99.90;;;;;;5093617;28;20416;-74
2022/04/25 05:21:25;;;;;;;;;;;8.10;99.90;;;;;;5113533;28;19931;-74
2022/04/25 05:23:53;;;;;;;;;;;8.10;99.90;;;;;;5112266;28;20348;-73
2022/04/25 05:26:20;;;;;;;;;;;8.10;99.90;;;;;;5113085;28;19923;-74
2022/04/25 05:28:47;;;;;;;;;;;8.20;99.90;;;;;;5113785;28;19972;-75
2022/04/25 05:31:13;;;;;;;;;;;8.20;99.90;;;;;;5113376;28;19931;-74
2022/04/25 05:33:40;;;;;;;;;;;8.20;99.90;;;;;;5111815;28;20444;-74
2022/04/25 05:36:07;;;;;;;;;;;8.20;99.90;;;;;;5112141;28;19927;-74
2022/04/25 05:38:34;;;;;;;;;;;8.20;99.90;;;;;;5112304;28;20341;-74
2022/04/25 05:41:02;;;;;;;;;;;8.20;99.90;;;;;;5112021;28;19928;-74
2022/04/25 05:43:29;;;;;;;;;;;8.30;99.90;;;;;;5112773;28;20390;-73
2022/04/25 05:45:56;;;;;;;;;;;8.30;99.90;;;;;;5114053;27;19923;-74
2022/04/25 05:53:51;;;;;;;;;;;8.40;99.90;;;;;;5113150;28;19946;-76
2022/04/25 05:56:19;;;;;;;;;;;8.50;99.90;;;;;;5113478;28;19930;-76
2022/04/25 05:58:47;;;;;;;;;;;8.50;99.90;;;;;;5113215;28;19932;-75
2022/04/25 06:01:14;;;;;;;;;;;8.60;99.90;;;;;;5113155;28;19923;-76
2022/04/25 06:03:40;;;;;;;;;;;8.60;99.90;;;;;;5112206;28;20348;-75
2022/04/25 06:06:07;;;;;;;;;;;8.60;99.90;;;;;;5112494;28;20379;-76
2022/04/25 06:08:34;;;;;;;;;;;8.70;99.90;;;;;;5112409;28;19942;-75
2022/04/25 06:11:01;;;;;;;;;;;8.70;99.90;;;;;;5103226;28;19932;-72
2022/04/25 06:13:29;;;;;;;;;;;8.70;99.90;;;;;;5097293;28;19932;-81
2022/04/25 06:15:56;;;;;;;;;;;8.70;99.90;;;;;;5102049;28;19924;-82
2022/04/25 06:18:23;;;;;;;;;;;8.70;99.90;;;;;;5093848;28;19928;-77
2022/04/25 06:20:50;;;;;;;;;;;8.70;99.90;;;;;;5091110;28;19924;-75
2022/04/25 06:23:18;;;;;;;;;;;8.70;99.90;;;;;;5093648;28;20022;-80
2022/04/25 06:25:44;;;;;;;;;;;8.70;99.90;;;;;;5095372;28;19924;-74
2022/04/25 06:28:11;;;;;;;;;;;8.80;99.90;;;;;;5102459;27;19968;-75
2022/04/25 06:30:40;;;;;;;;;;;8.80;99.90;;;;;;5120933;27;19923;-73
2022/04/25 06:33:07;;;;;;;;;;;8.80;99.90;;;;;;5119473;27;19932;-73
2022/04/25 06:35:34;;;;;;;;;;;8.70;99.90;;;;;;5117728;27;19924;-73
2022/04/25 06:38:00;;;;;;;;;;;8.70;99.90;;;;;;5111013;28;19924;-75
2022/04/25 06:40:27;;;;;;;;;;;8.70;99.90;;;;;;5110192;28;20416;-74
2022/04/25 06:42:55;;;;;;;;;;;8.70;99.90;;;;;;5111585;28;20299;-74
2022/04/25 06:45:22;;;;;;;;;;;8.80;99.90;;;;;;5109890;28;19923;-74
2022/04/25 06:47:50;;;;;;;;;;;8.80;99.90;;;;;;5110257;28;19931;-74
2022/04/25 06:50:17;;;;;;;;;;;8.80;99.90;;;;;;5111077;28;19957;-74
2022/04/25 06:52:45;;;;;;;;;;;8.90;99.90;;;;;;5110927;28;20355;-74
2022/04/25 06:55:11;;;;;;;;;;;9.00;99.90;;;;;;5110521;28;19931;-75
2022/04/25 06:57:38;;;;;;;;;;;9.10;99.90;;;;;;5111065;28;19931;-74
2022/04/25 07:00:08;;;;;;;;;;;9.10;99.90;;;;;;5110679;28;19923;-74
2022/04/25 07:02:35;;;;;;;;;;;9.20;99.90;;;;;;5110670;28;20022;-74
2022/04/25 07:05:05;;;;;;;;;;;9.30;99.90;;;;;;5110680;28;19927;-74
2022/04/25 07:07:31;;;;;;;;;;;9.30;99.90;;;;;;5111212;28;19991;-74
2022/04/25 07:09:58;;;;;;;;;;;9.40;99.90;;;;;;5110579;28;19923;-74
2022/04/25 07:12:25;;;;;;;;;;;9.50;99.90;;;;;;5090170;28;19931;-74
2022/04/25 07:14:51;;;;;;;;;;;9.60;99.90;;;;;;5090321;28;19924;-74
2022/04/25 07:17:18;;;;;;;;;;;9.70;99.90;;;;;;5090362;28;19924;-75
2022/04/25 07:19:45;;;;;;;;;;;9.80;99.90;;;;;;5090039;28;19924;-74
2022/04/25 07:30:26;;;;;;;;;;;10.40;99.90;;;;;;5090087;28;19942;-74
2022/04/25 07:32:55;;;;;;;;;;;10.60;99.90;;;;;;5089951;28;19932;-74
2022/04/25 07:35:21;;;;;;;;;;;10.70;99.90;;;;;;5089994;28;19932;-74
2022/04/25 07:37:51;;;;;;;;;;;10.80;99.90;;;;;;5089987;28;19930;-75
2022/04/25 07:40:17;;;;;;;;;;;11.00;99.90;;;;;;5089869;28;19938;-75
2022/04/25 07:42:44;;;;;;;;;;;11.00;99.90;;;;;;5090029;28;19924;-74
2022/04/25 07:45:11;;;;;;;;;;;11.00;99.90;;;;;;5089881;28;19924;-74
2022/04/25 07:47:39;;;;;;;;;;;11.00;99.90;;;;;;5090129;28;19931;-75
2022/04/25 07:50:06;;;;;;;;;;;11.20;99.90;;;;;;5089821;28;20371;-75
2022/04/25 07:52:33;;;;;;;;;;;11.20;99.90;;;;;;5089867;28;20280;-75
2022/04/25 07:55:01;;;;;;;;;;;11.40;99.90;;;;;;5089891;28;20387;-74
2022/04/25 07:57:28;;;;;;;;;;;11.50;99.90;;;;;;5090136;28;19932;-74
2022/04/25 07:59:56;;;;;;;;;;;11.60;99.90;;;;;;5089943;28;19954;-74
2022/04/25 08:02:23;;;;;;;;;;;11.50;99.90;;;;;;5090109;28;19974;-73
2022/04/25 08:04:50;;;;;;;;;;;11.70;99.90;;;;;;5089667;28;19928;-75
2022/04/25 08:07:17;;;;;;;;;;;11.70;99.90;;;;;;5090414;28;19924;-74
2022/04/25 08:09:44;;;;;;;;;;;11.60;99.90;;;;;;5090480;28;19927;-74
2022/04/25 08:20:25;;;;;;;;;;;11.40;99.90;;;;;;5090184;28;19959;-74
2022/04/25 08:22:53;;;;;;;;;;;11.30;99.90;;;;;;5090208;28;20333;-74
2022/04/25 08:25:21;;;;;;;;;;;11.40;99.90;;;;;;5090220;28;20022;-74
2022/04/25 08:27:49;;;;;;;;;;;11.50;99.90;;;;;;5089532;28;20357;-74
2022/04/25 08:30:17;;;;;;;;;;;11.70;99.90;;;;;;5090031;28;19924;-73
2022/04/25 08:32:46;;;;;;;;;;;11.90;99.90;;;;;;5090657;28;19925;-73
2022/04/25 08:35:13;;;;;;;;;;;11.80;99.90;;;;;;5091369;28;20375;-75
2022/04/25 08:37:40;;;;;;;;;;;11.80;99.90;;;;;;5091510;28;20504;-76
2022/04/25 08:40:08;;;;;;;;;;;11.90;99.90;;;;;;5107717;28;19932;-73
2022/04/25 08:42:35;;;;;;;;;;;12.00;99.90;;;;;;5119805;27;20290;-78
2022/04/25 08:45:05;;;;;;;;;;;12.20;99.90;;;;;;5131637;27;20405;-76
2022/04/25 08:47:35;;;;;;;;;;;12.30;99.90;;;;;;5135565;27;19998;-75
2022/04/25 08:50:01;;;;;;;;;;;12.40;99.90;;;;;;5134933;27;19931;-76
2022/04/25 08:52:29;;;;;;;;;;;12.60;99.90;;;;;;5134655;27;19924;-76
2022/04/25 08:54:57;;;;;;;;;;;12.80;99.90;;;;;;5133753;27;19931;-76
2022/04/25 08:57:24;;;;;;;;;;;13.00;99.90;;;;;;5134134;27;19969;-76
2022/04/25 08:59:52;;;;;;;;;;;13.10;99.90;;;;;;5133717;27;19927;-76
2022/04/25 09:02:22;;;;;;;;;;;13.00;99.90;;;;;;5134028;27;19927;-76
2022/04/25 09:04:49;;;;;;;;;;;13.00;99.90;;;;;;5133552;27;20017;-74
2022/04/25 09:07:16;;;;;;;;;;;13.10;99.90;;;;;;5134393;27;19923;-77
2022/04/25 09:09:44;;;;;;;;;;;13.30;99.90;;;;;;5123595;27;19930;-76
2022/04/25 09:12:14;;;;;;;;;;;13.40;99.90;;;;;;5124012;27;19929;-74
2022/04/25 09:14:41;;;;;;;;;;;13.40;99.90;;;;;;5133216;27;20018;-74
2022/04/25 09:17:08;;;;;;;;;;;13.40;99.90;;;;;;5133677;27;19976;-75
2022/04/25 09:19:37;;;;;;;;;;;13.40;99.90;;;;;;5133320;27;19930;-75
2022/04/25 09:22:04;;;;;;;;;;;13.50;99.90;;;;;;5128780;27;19992;-75
2022/04/25 09:24:32;;;;;;;;;;;13.60;99.90;;;;;;5113853;27;19924;-75
2022/04/25 09:27:11;;;;;;;;;;;13.60;99.90;;;;;;5117384;27;20030;-75
2022/04/25 09:29:38;;;;;;;;;;;13.80;99.90;;;;;;5113698;28;19928;-76
2022/04/25 09:32:06;;;;;;;;;;;13.90;99.90;;;;;;5111013;27;19924;-76
2022/04/25 09:37:19;;;;;;;;;;;14.10;99.90;;;;;;5115365;27;19927;-75
2022/04/25 09:39:45;;;;;;;;;;;14.20;99.90;;;;;;5113413;28;19967;-76
2022/04/25 09:42:14;;;;;;;;;;;14.20;99.90;;;;;;5113616;28;19928;-76
2022/04/25 09:44:55;;;;;;;;;;;14.10;99.90;;;;;;5112755;28;19924;-75
2022/04/25 09:47:26;;;;;;;;;;;14.20;99.90;;;;;;5113586;28;20023;-76
2022/04/25 09:49:58;;;;;;;;;;;14.20;99.90;;;;;;5113363;28;19924;-77
2022/04/25 09:52:27;;;;;;;;;;;14.40;99.90;;;;;;5114978;28;20390;-76
2022/04/25 09:54:54;;;;;;;;;;;14.50;99.90;;;;;;5112045;28;19924;-76
2022/04/25 09:57:29;;;;;;;;;;;14.60;99.90;;;;;;5112427;28;19924;-74
2022/04/25 09:59:57;;;;;;;;;;;14.70;99.90;;;;;;5111908;28;19927;-74
2022/04/25 10:02:23;;;;;;;;;;;14.80;99.90;;;;;;5111648;28;19923;-73
2022/04/25 10:04:50;;;;;;;;;;;14.90;99.90;;;;;;5111652;27;19939;-75
2022/04/25 10:07:18;;;;;;;;;;;15.20;99.90;;;;;;5110468;27;20344;-75
2022/04/25 10:09:47;;;;;;;;;;;15.10;99.90;;;;;;5115606;27;20284;-75
2022/04/25 10:12:14;;;;;;;;;;;15.10;99.90;;;;;;5124728;27;20337;-75
2022/04/25 10:14:41;;;;;;;;;;;15.30;99.90;;;;;;5110766;27;19931;-76
2022/04/25 10:17:08;;;;;;;;;;;15.30;99.90;;;;;;5118096;28;20013;-74
2022/04/25 10:19:35;;;;;;;;;;;15.10;99.90;;;;;;5111512;28;19931;-75
2022/04/25 10:22:02;;;;;;;;;;;15.00;99.90;;;;;;5112423;28;19924;-75
2022/04/25 10:24:29;;;;;;;;;;;15.00;99.90;;;;;;5111630;28;19985;-74
2022/04/25 10:26:58;;;;;;;;;;;15.10;99.90;;;;;;5112139;28;19932;-75
2022/04/25 10:29:27;;;;;;;;;;;15.10;99.90;;;;;;5112243;28;19977;-75
2022/04/25 10:31:57;;;;;;;;;;;15.10;99.90;;;;;;5112018;28;19928;-75
2022/04/25 10:34:46;;;;;;;;;;;15.30;99.90;;;;;;5111175;28;19931;-75
2022/04/25 10:37:29;;;;;;;;;;;15.30;99.90;;;;;;5115195;28;20356;-75
2022/04/25 10:39:56;;;;;;;;;;;15.30;99.90;;;;;;5111267;28;20018;-75
2022/04/25 10:45:09;;;;;;;;;;;15.40;99.90;;;;;;5117616;27;20034;-74
2022/04/25 10:47:36;;;;;;;;;;;15.40;99.90;;;;;;5122273;27;19923;-74
2022/04/25 10:50:07;;;;;;;;;;;15.30;99.90;;;;;;5133355;27;19931;-74
2022/04/25 10:52:55;;;;;;;;;;;15.40;99.90;;;;;;5135235;27;19924;-75
2022/04/25 10:55:38;;;;;;;;;;;15.60;99.90;;;;;;5134917;27;19923;-76
2022/04/25 10:58:30;;;;;;;;;;;15.80;99.90;;;;;;5133372;27;19923;-74
2022/04/25 11:00:59;;;;;;;;;;;15.90;99.90;;;;;;5134878;27;19930;-75
2022/04/25 11:03:29;;;;;;;;;;;16.00;99.90;;;;;;5133473;27;19930;-75
2022/04/25 11:05:57;;;;;;;;;;;16.20;99.90;;;;;;5120259;27;19959;-75
2022/04/25 11:08:28;;;;;;;;;;;16.30;99.90;;;;;;5119993;27;19995;-75
2022/04/25 11:11:02;;;;;;;;;;;16.30;99.90;;;;;;5115868;28;19946;-75
2022/04/25 11:13:30;;;;;;;;;;;16.50;99.90;;;;;;5099149;28;19924;-74
2022/04/25 11:15:59;;;;;;;;;;;16.70;99.90;;;;;;5115662;28;19923;-75
2022/04/25 11:18:30;;;;;;;;;;;16.90;99.90;;;;;;5115388;28;19968;-75
2022/04/25 11:20:58;;;;;;;;;;;17.20;99.90;;;;;;5115030;28;20019;-75
2022/04/25 11:23:27;;;;;;;;;;;17.30;99.90;;;;;;5097245;28;19924;-75
2022/04/25 11:25:55;;;;;;;;;;;17.60;99.90;;;;;;5115843;28;19924;-76
2022/04/25 11:28:22;;;;;;;;;;;17.90;99.90;;;;;;5114227;28;20397;-74
2022/04/25 11:31:05;;;;;;;;;;;17.80;99.90;;;;;;5115253;28;20455;-75
2022/04/25 11:33:42;;;;;;;;;;;17.90;99.90;;;;;;5114502;28;19923;-75
2022/04/25 11:36:11;;;;;;;;;;;18.20;99.90;;;;;;5112451;28;19923;-75
2022/04/25 11:41:22;;;;;;;;;;;17.90;99.90;;;;;;5112136;28;20015;-74
2022/04/25 11:43:49;;;;;;;;;;;17.30;99.90;;;;;;5110602;28;19924;-76
2022/04/25 11:46:16;;;;;;;;;;;16.90;99.90;;;;;;5110080;28;20379;-75
2022/04/25 11:48:47;;;;;;;;;;;16.80;99.90;;;;;;5111459;28;19924;-75
2022/04/25 11:51:22;;;;;;;;;;;16.70;99.90;;;;;;5115376;28;19927;-74
2022/04/25 11:53:48;;;;;;;;;;;16.80;99.90;;;;;;5126982;27;19928;-75
2022/04/25 11:56:16;;;;;;;;;;;16.80;99.90;;;;;;5131059;28;19924;-76
2022/04/25 11:58:43;;;;;;;;;;;16.50;99.90;;;;;;5131375;28;20503;-75
2022/04/25 12:01:10;;;;;;;;;;;16.40;99.90;;;;;;5131395;27;19927;-75
2022/04/25 12:03:37;;;;;;;;;;;16.20;99.90;;;;;;5120387;28;19999;-75
2022/04/25 12:06:10;;;;;;;;;;;15.90;99.90;;;;;;5127819;27;19935;-74
2022/04/25 12:16:50;;;;;;;;;;;15.20;99.90;;;;;;5111920;28;19926;-76
2022/04/25 12:19:17;;;;;;;;;;;15.20;99.90;;;;;;5113784;28;20344;-78
2022/04/25 12:21:48;;;;;;;;;;;15.20;99.90;;;;;;5114106;28;19924;-77
2022/04/25 12:24:16;;;;;;;;;;;15.10;99.90;;;;;;5115657;28;19924;-76
2022/04/25 12:26:43;;;;;;;;;;;14.90;99.90;;;;;;5113582;28;19952;-77
2022/04/25 12:29:12;;;;;;;;;;;14.80;99.90;;;;;;5113098;28;20346;-77
2022/04/25 12:31:43;;;;;;;;;;;15.00;99.90;;;;;;5113903;28;19975;-77
2022/04/25 12:34:12;;;;;;;;;;;15.00;99.90;;;;;;5115200;28;19928;-76
2022/04/25 12:36:39;;;;;;;;;;;15.10;99.90;;;;;;5115138;28;19947;-73
2022/04/25 12:39:12;;;;;;;;;;;15.00;99.90;;;;;;5115010;28;19931;-75
2022/04/25 12:41:40;;;;;;;;;;;14.80;99.90;;;;;;5120441;27;19971;-75
2022/04/25 12:44:13;;;;;;;;;;;14.80;99.90;;;;;;5117242;27;19924;-75
2022/04/25 12:46:41;;;;;;;;;;;14.70;99.90;;;;;;5115182;28;19924;-76
2022/04/25 12:49:08;;;;;;;;;;;14.70;99.90;;;;;;5115717;28;19927;-77
2022/04/25 12:51:36;;;;;;;;;;;14.80;99.90;;;;;;5112679;27;19927;-77
2022/04/25 12:54:04;;;;;;;;;;;14.90;99.90;;;;;;5126384;27;19968;-81
2022/04/25 12:56:33;;;;;;;;;;;14.90;99.90;;;;;;5137438;27;19968;-83
2022/04/25 12:59:00;;;;;;;;;;;14.90;99.90;;;;;;5134767;27;19924;-82
2022/04/25 13:01:28;;;;;;;;;;;14.80;99.90;;;;;;5135753;27;20351;-73
2022/04/25 13:04:08;;;;;;;;;;;14.60;99.90;;;;;;5133001;27;19963;-74
2022/04/25 13:06:35;;;;;;;;;;;14.40;99.90;;;;;;5133526;27;19923;-74
2022/04/25 13:09:02;;;;;;;;;;;14.40;99.90;;;;;;5133252;27;19970;-73
2022/04/25 13:11:29;;;;;;;;;;;14.30;99.90;;;;;;5133662;27;19927;-73
2022/04/25 13:13:59;;;;;;;;;;;14.10;99.90;;;;;;5133304;27;20422;-72
2022/04/25 13:16:26;;;;;;;;;;;14.00;99.90;;;;;;5133678;27;19924;-73
2022/04/25 13:18:53;;;;;;;;;;;13.90;99.90;;;;;;5133091;27;19923;-74
2022/04/25 13:21:20;;;;;;;;;;;14.10;99.90;;;;;;5133446;27;20031;-73
2022/04/25 13:23:49;;;;;;;;;;;14.30;99.90;;;;;;5133063;27;19973;-73
2022/04/25 13:26:16;;;;;;;;;;;14.40;99.90;;;;;;5133274;27;20459;-73
2022/04/25 13:28:43;;;;;;;;;;;14.60;99.90;;;;;;5133081;27;20402;-73
2022/04/25 13:31:12;;;;;;;;;;;14.80;99.90;;;;;;5133239;27;19923;-73
2022/04/25 13:33:38;;;;;;;;;;;15.20;99.90;;;;;;5132557;27;19977;-73
2022/04/25 13:36:06;;;;;;;;;;;15.80;99.90;;;;;;5133059;27;19963;-73
2022/04/25 13:38:32;;;;;;;;;;;16.60;99.90;;;;;;5133190;27;20394;-73
2022/04/25 13:41:00;;;;;;;;;;;17.70;99.90;;;;;;5133065;27;19928;-78
2022/04/25 13:43:26;;;;;;;;;;;18.60;99.90;;;;;;5133178;27;19947;-78
2022/04/25 13:45:54;;;;;;;;;;;;;;;;;;5133282;27;19928;-78
2022/04/25 13:48:24;;;;;;;;;;;20.40;99.90;;;;;;5133459;27;19972;-77
2022/04/25 13:50:51;;;;;;;;;;;20.80;99.90;;;;;;5134380;27;19946;-76
2022/04/25 13:53:18;;;;;;;;;;;21.50;99.90;;;;;;5133649;27;20026;-77
2022/04/25 13:55:46;;;;;;;;;;;22.30;99.90;;;;;;5133291;27;19931;-78
2022/04/25 13:58:13;;;;;;;;;;;22.20;99.90;;;;;;5133746;27;20026;-77
2022/04/25 14:00:40;;;;;;;;;;;21.80;99.90;;;;;;5124640;27;19927;-76
2022/04/25 14:03:08;;;;;;;;;;;21.50;99.90;;;;;;5120491;27;19976;-78
2022/04/25 14:05:37;;;;;;;;;;;21.50;99.90;;;;;;5121389;27;19924;-80
2022/04/25 14:08:05;;;;;;;;;;;21.50;99.90;;;;;;5112918;28;19928;-77
2022/04/25 14:10:31;;;;;;;;;;;21.50;99.90;;;;;;5107713;28;19924;-79
2022/04/25 14:12:59;;;;;;;;;;;21.80;99.90;;;;;;5093479;28;19931;-79
2022/04/25 14:15:26;;;;;;;;;;;22.20;99.90;;;;;;5097529;28;19946;-80
2022/04/25 14:17:53;;;;;;;;;;;22.40;99.90;;;;;;5096012;28;19980;-78
2022/04/25 14:20:19;;;;;;;;;;;21.80;99.90;;;;;;5100172;27;19973;-76
2022/04/25 14:22:48;;;;;;;;;;;21.30;99.90;;;;;;5114179;27;19924;-76
2022/04/25 14:25:14;;;;;;;;;;;19.90;99.90;;;;;;5111998;27;19924;-76
2022/04/25 14:27:41;;;;;;;;;;;18.60;99.90;;;;;;5121726;27;19945;-77
2022/04/25 14:30:09;;;;;;;;;;;17.80;99.90;;;;;;5118005;27;19924;-79
2022/04/25 14:32:36;;;;;;;;;;;17.00;99.90;;;;;;5114652;28;19924;-77
2022/04/25 14:35:03;;;;;;;;;;;16.60;99.90;;;;;;5113381;28;20441;-79
2022/04/25 14:37:30;;;;;;;;;;;16.30;99.90;;;;;;5113343;28;20340;-77
2022/04/25 14:39:58;;;;;;;;;;;16.10;99.90;;;;;;5112498;28;19973;-79
2022/04/25 14:42:25;;;;;;;;;;;15.90;99.90;;;;;;5112430;28;19924;-79
2022/04/25 14:44:52;;;;;;;;;;;16.10;99.90;;;;;;5112278;28;19930;-77
2022/04/25 14:47:19;;;;;;;;;;;16.20;99.90;;;;;;5112604;28;20395;-79
2022/04/25 14:55:17;;;;;;;;;;;16.80;99.90;;;;;;5112455;28;20387;-79
2022/04/25 14:57:44;;;;;;;;;;;17.70;99.90;;;;;;5111551;28;19924;-78
2022/04/25 15:00:13;;;;;;;;;;;18.10;99.90;;;;;;5111709;28;20356;-77
2022/04/25 15:02:39;;;;;;;;;;;18.30;99.90;;;;;;5111736;28;19924;-77
2022/04/25 15:05:07;;;;;;;;;;;18.80;99.90;;;;;;5109522;27;19923;-78
2022/04/25 15:07:34;;;;;;;;;;;19.20;99.90;;;;;;5122167;27;19935;-79
2022/04/25 15:10:00;;;;;;;;;;;19.50;99.90;;;;;;5111535;28;19924;-80
2022/04/25 15:12:29;;;;;;;;;;;19.40;99.90;;;;;;5093093;28;19977;-80
2022/04/25 15:14:55;;;;;;;;;;;20.00;99.90;;;;;;5096527;28;19946;-79
2022/04/25 15:17:22;;;;;;;;;;;19.60;99.90;;;;;;5091856;28;19924;-77